EmailTwitter


Surface observations / United Kingdom / EGLL (03772)

Regions: Quebec | Canada | USA | Europe | France | UK | Elsewhere
Station
Display
Info & Location for EGLL (03772) | Help decoding METAR

Weather Conditions observed on 2019/02/16 at 09:50 UTC at LONDON/HEATHROW, UK (EGLL)

Temperature: 9.0 Celsius.

Dewpoint: 9.0 Celsius.

Relative Humidity: 100%

Windchill Factor: 6.

Winds: South-southwest at 17 km/h or 9 knots.

Mean Sea level Pressure: 102.30 kilopascals.

Coded METAR:

EGLL 160950Z AUTO 20009KT 180V240 3600 HZ OVC020 09/09 Q1023 NOSIG=